sensor_id;sensor_type;location;lat;lon;timestamp;P1;durP1;ratioP1;P2;durP2;ratioP2
8825;SDS011;4449;50.872;4.714;2023-01-23T00:00:05;28.90;;;15.03;;
8825;SDS011;4449;50.872;4.714;2023-01-23T00:02:35;26.20;;;14.27;;
8825;SDS011;4449;50.872;4.714;2023-01-23T00:05:03;26.17;;;16.10;;
8825;SDS011;4449;50.872;4.714;2023-01-23T00:07:31;24.20;;;14.77;;
8825;SDS011;4449;50.872;4.714;2023-01-23T00:10:00;22.17;;;14.30;;
8825;SDS011;4449;50.872;4.714;2023-01-23T00:12:28;27.43;;;16.03;;
8825;SDS011;4449;50.872;4.714;2023-01-23T00:14:56;26.77;;;13.47;;
8825;SDS011;4449;50.872;4.714;2023-01-23T00:17:24;24.63;;;15.17;;
8825;SDS011;4449;50.872;4.714;2023-01-23T00:19:53;25.40;;;15.07;;
8825;SDS011;4449;50.872;4.714;2023-01-23T00:22:21;24.37;;;15.80;;
8825;SDS011;4449;50.872;4.714;2023-01-23T00:24:49;27.53;;;16.17;;
8825;SDS011;4449;50.872;4.714;2023-01-23T00:27:18;26.13;;;15.43;;
8825;SDS011;4449;50.872;4.714;2023-01-23T00:29:46;22.63;;;14.63;;
8825;SDS011;4449;50.872;4.714;2023-01-23T00:32:13;27.23;;;15.40;;
8825;SDS011;4449;50.872;4.714;2023-01-23T00:34:41;28.60;;;15.20;;
8825;SDS011;4449;50.872;4.714;2023-01-23T00:37:09;23.47;;;15.20;;
8825;SDS011;4449;50.872;4.714;2023-01-23T00:39:37;27.27;;;16.30;;
8825;SDS011;4449;50.872;4.714;2023-01-23T00:42:04;26.10;;;16.13;;
8825;SDS011;4449;50.872;4.714;2023-01-23T00:44:34;27.43;;;15.73;;
8825;SDS011;4449;50.872;4.714;2023-01-23T00:47:01;26.03;;;16.70;;
8825;SDS011;4449;50.872;4.714;2023-01-23T00:49:30;29.60;;;15.67;;
8825;SDS011;4449;50.872;4.714;2023-01-23T00:51:58;26.60;;;15.53;;
8825;SDS011;4449;50.872;4.714;2023-01-23T00:54:26;31.33;;;16.93;;
8825;SDS011;4449;50.872;4.714;2023-01-23T00:56:53;26.43;;;16.23;;
8825;SDS011;4449;50.872;4.714;2023-01-23T00:59:21;27.67;;;16.37;;
8825;SDS011;4449;50.872;4.714;2023-01-23T01:01:50;29.47;;;17.40;;
8825;SDS011;4449;50.872;4.714;2023-01-23T01:04:18;36.00;;;16.73;;
8825;SDS011;4449;50.872;4.714;2023-01-23T01:06:46;28.17;;;16.60;;
8825;SDS011;4449;50.872;4.714;2023-01-23T01:09:14;28.93;;;16.53;;
8825;SDS011;4449;50.872;4.714;2023-01-23T01:11:42;31.23;;;16.70;;
8825;SDS011;4449;50.872;4.714;2023-01-23T01:14:09;29.50;;;16.60;;
8825;SDS011;4449;50.872;4.714;2023-01-23T01:16:37;29.47;;;16.70;;
8825;SDS011;4449;50.872;4.714;2023-01-23T01:19:11;29.57;;;16.23;;
8825;SDS011;4449;50.872;4.714;2023-01-23T01:21:39;27.73;;;16.37;;
8825;SDS011;4449;50.872;4.714;2023-01-23T01:24:07;33.07;;;16.87;;
8825;SDS011;4449;50.872;4.714;2023-01-23T01:26:35;32.63;;;17.17;;
8825;SDS011;4449;50.872;4.714;2023-01-23T01:29:03;28.57;;;16.83;;
8825;SDS011;4449;50.872;4.714;2023-01-23T01:31:31;34.37;;;17.93;;
8825;SDS011;4449;50.872;4.714;2023-01-23T01:33:58;32.73;;;17.53;;
8825;SDS011;4449;50.872;4.714;2023-01-23T01:36:27;28.80;;;18.13;;
8825;SDS011;4449;50.872;4.714;2023-01-23T01:38:55;39.83;;;17.57;;
8825;SDS011;4449;50.872;4.714;2023-01-23T01:41:23;32.67;;;17.93;;
8825;SDS011;4449;50.872;4.714;2023-01-23T01:43:51;33.40;;;17.63;;
8825;SDS011;4449;50.872;4.714;2023-01-23T01:46:21;32.23;;;18.20;;
8825;SDS011;4449;50.872;4.714;2023-01-23T01:48:52;31.93;;;17.97;;
8825;SDS011;4449;50.872;4.714;2023-01-23T01:51:23;31.83;;;17.60;;
8825;SDS011;4449;50.872;4.714;2023-01-23T01:53:56;34.67;;;18.03;;
8825;SDS011;4449;50.872;4.714;2023-01-23T01:56:25;35.30;;;18.30;;
8825;SDS011;4449;50.872;4.714;2023-01-23T01:58:53;36.77;;;18.90;;
8825;SDS011;4449;50.872;4.714;2023-01-23T02:01:21;31.17;;;18.23;;
8825;SDS011;4449;50.872;4.714;2023-01-23T02:03:49;33.37;;;18.13;;
8825;SDS011;4449;50.872;4.714;2023-01-23T02:06:17;34.27;;;18.53;;
8825;SDS011;4449;50.872;4.714;2023-01-23T02:08:47;37.83;;;17.90;;
8825;SDS011;4449;50.872;4.714;2023-01-23T02:11:18;33.60;;;18.10;;
8825;SDS011;4449;50.872;4.714;2023-01-23T02:13:46;39.63;;;19.63;;
8825;SDS011;4449;50.872;4.714;2023-01-23T02:16:16;36.40;;;20.17;;
8825;SDS011;4449;50.872;4.714;2023-01-23T02:18:46;38.03;;;19.23;;
8825;SDS011;4449;50.872;4.714;2023-01-23T02:21:14;36.60;;;19.27;;
8825;SDS011;4449;50.872;4.714;2023-01-23T02:23:47;37.13;;;19.23;;
8825;SDS011;4449;50.872;4.714;2023-01-23T02:26:19;40.83;;;18.53;;
8825;SDS011;4449;50.872;4.714;2023-01-23T02:28:48;42.37;;;19.63;;
8825;SDS011;4449;50.872;4.714;2023-01-23T02:31:17;39.40;;;19.57;;
8825;SDS011;4449;50.872;4.714;2023-01-23T02:33:48;41.17;;;18.33;;
8825;SDS011;4449;50.872;4.714;2023-01-23T02:36:16;38.27;;;19.13;;
8825;SDS011;4449;50.872;4.714;2023-01-23T02:38:46;40.57;;;18.27;;
8825;SDS011;4449;50.872;4.714;2023-01-23T02:41:17;39.63;;;19.03;;
8825;SDS011;4449;50.872;4.714;2023-01-23T02:43:47;37.67;;;19.30;;
8825;SDS011;4449;50.872;4.714;2023-01-23T02:46:16;38.97;;;19.63;;
8825;SDS011;4449;50.872;4.714;2023-01-23T02:48:45;40.60;;;20.10;;
8825;SDS011;4449;50.872;4.714;2023-01-23T02:51:14;44.07;;;19.77;;
8825;SDS011;4449;50.872;4.714;2023-01-23T02:53:42;50.07;;;19.83;;
8825;SDS011;4449;50.872;4.714;2023-01-23T02:56:10;42.43;;;19.33;;
8825;SDS011;4449;50.872;4.714;2023-01-23T02:58:39;43.60;;;20.00;;
8825;SDS011;4449;50.872;4.714;2023-01-23T03:01:24;45.40;;;19.77;;
8825;SDS011;4449;50.872;4.714;2023-01-23T03:03:53;43.87;;;19.57;;
8825;SDS011;4449;50.872;4.714;2023-01-23T03:06:28;41.30;;;19.90;;
8825;SDS011;4449;50.872;4.714;2023-01-23T03:09:01;46.07;;;19.47;;
8825;SDS011;4449;50.872;4.714;2023-01-23T03:11:30;40.13;;;18.67;;
8825;SDS011;4449;50.872;4.714;2023-01-23T03:14:00;48.57;;;21.03;;
8825;SDS011;4449;50.872;4.714;2023-01-23T03:16:28;51.13;;;20.83;;
8825;SDS011;4449;50.872;4.714;2023-01-23T03:18:55;41.70;;;20.43;;
8825;SDS011;4449;50.872;4.714;2023-01-23T03:21:26;45.93;;;20.43;;
8825;SDS011;4449;50.872;4.714;2023-01-23T03:23:54;43.43;;;18.77;;
8825;SDS011;4449;50.872;4.714;2023-01-23T03:26:22;44.33;;;20.83;;
8825;SDS011;4449;50.872;4.714;2023-01-23T03:28:50;52.57;;;20.87;;
8825;SDS011;4449;50.872;4.714;2023-01-23T03:31:36;48.77;;;21.00;;
8825;SDS011;4449;50.872;4.714;2023-01-23T03:34:04;44.43;;;19.47;;
8825;SDS011;4449;50.872;4.714;2023-01-23T03:36:32;46.83;;;20.50;;
8825;SDS011;4449;50.872;4.714;2023-01-23T03:39:07;49.60;;;20.83;;
8825;SDS011;4449;50.872;4.714;2023-01-23T03:41:52;45.37;;;20.90;;
8825;SDS011;4449;50.872;4.714;2023-01-23T03:44:20;48.93;;;21.37;;
8825;SDS011;4449;50.872;4.714;2023-01-23T03:46:49;43.23;;;21.57;;
8825;SDS011;4449;50.872;4.714;2023-01-23T03:49:17;45.87;;;21.47;;
8825;SDS011;4449;50.872;4.714;2023-01-23T03:51:45;48.80;;;21.47;;
8825;SDS011;4449;50.872;4.714;2023-01-23T03:54:13;50.77;;;20.90;;
8825;SDS011;4449;50.872;4.714;2023-01-23T03:56:41;47.47;;;21.93;;
8825;SDS011;4449;50.872;4.714;2023-01-23T03:59:09;48.10;;;20.50;;
8825;SDS011;4449;50.872;4.714;2023-01-23T04:01:37;52.90;;;22.57;;
8825;SDS011;4449;50.872;4.714;2023-01-23T04:04:06;49.93;;;19.97;;
8825;SDS011;4449;50.872;4.714;2023-01-23T04:06:34;51.63;;;22.97;;
8825;SDS011;4449;50.872;4.714;2023-01-23T04:09:02;43.13;;;20.77;;
8825;SDS011;4449;50.872;4.714;2023-01-23T04:11:29;51.43;;;21.47;;
8825;SDS011;4449;50.872;4.714;2023-01-23T04:13:57;52.43;;;22.03;;
8825;SDS011;4449;50.872;4.714;2023-01-23T04:16:25;45.93;;;22.53;;
8825;SDS011;4449;50.872;4.714;2023-01-23T04:18:53;57.93;;;22.37;;
8825;SDS011;4449;50.872;4.714;2023-01-23T04:21:22;45.13;;;21.37;;
8825;SDS011;4449;50.872;4.714;2023-01-23T04:23:50;67.63;;;23.40;;
8825;SDS011;4449;50.872;4.714;2023-01-23T04:26:18;56.80;;;23.07;;
8825;SDS011;4449;50.872;4.714;2023-01-23T04:28:46;56.93;;;21.50;;
8825;SDS011;4449;50.872;4.714;2023-01-23T04:31:13;60.50;;;21.07;;
8825;SDS011;4449;50.872;4.714;2023-01-23T04:33:41;54.53;;;22.60;;
8825;SDS011;4449;50.872;4.714;2023-01-23T04:36:09;60.53;;;22.83;;
8825;SDS011;4449;50.872;4.714;2023-01-23T04:38:38;53.10;;;21.07;;
8825;SDS011;4449;50.872;4.714;2023-01-23T04:41:06;61.50;;;22.00;;
8825;SDS011;4449;50.872;4.714;2023-01-23T04:43:34;57.97;;;22.30;;
8825;SDS011;4449;50.872;4.714;2023-01-23T04:46:02;52.13;;;20.53;;
8825;SDS011;4449;50.872;4.714;2023-01-23T04:48:30;59.80;;;22.43;;
8825;SDS011;4449;50.872;4.714;2023-01-23T04:50:57;58.10;;;22.50;;
8825;SDS011;4449;50.872;4.714;2023-01-23T04:53:25;48.97;;;22.10;;
8825;SDS011;4449;50.872;4.714;2023-01-23T04:55:54;55.87;;;21.30;;
8825;SDS011;4449;50.872;4.714;2023-01-23T04:58:22;55.70;;;22.13;;
8825;SDS011;4449;50.872;4.714;2023-01-23T05:00:50;54.17;;;22.73;;
8825;SDS011;4449;50.872;4.714;2023-01-23T05:03:18;65.43;;;22.40;;
8825;SDS011;4449;50.872;4.714;2023-01-23T05:05:46;57.87;;;22.40;;
8825;SDS011;4449;50.872;4.714;2023-01-23T05:08:13;56.13;;;23.53;;
8825;SDS011;4449;50.872;4.714;2023-01-23T05:10:41;57.47;;;21.93;;
8825;SDS011;4449;50.872;4.714;2023-01-23T05:13:11;59.90;;;22.10;;
8825;SDS011;4449;50.872;4.714;2023-01-23T05:15:39;53.80;;;22.03;;
8825;SDS011;4449;50.872;4.714;2023-01-23T05:18:07;63.67;;;24.27;;
8825;SDS011;4449;50.872;4.714;2023-01-23T05:20:34;56.50;;;23.67;;
8825;SDS011;4449;50.872;4.714;2023-01-23T05:23:02;60.03;;;23.37;;
8825;SDS011;4449;50.872;4.714;2023-01-23T05:25:30;55.37;;;21.23;;
8825;SDS011;4449;50.872;4.714;2023-01-23T05:27:58;57.87;;;23.43;;
8825;SDS011;4449;50.872;4.714;2023-01-23T05:30:27;59.73;;;23.33;;
8825;SDS011;4449;50.872;4.714;2023-01-23T05:32:54;52.50;;;22.90;;
8825;SDS011;4449;50.872;4.714;2023-01-23T05:35:22;48.03;;;21.30;;
8825;SDS011;4449;50.872;4.714;2023-01-23T05:37:50;59.17;;;24.17;;
8825;SDS011;4449;50.872;4.714;2023-01-23T05:40:18;57.37;;;22.07;;
8825;SDS011;4449;50.872;4.714;2023-01-23T05:42:46;51.90;;;22.23;;
8825;SDS011;4449;50.872;4.714;2023-01-23T05:45:14;66.27;;;22.53;;
8825;SDS011;4449;50.872;4.714;2023-01-23T05:47:44;58.67;;;23.97;;
8825;SDS011;4449;50.872;4.714;2023-01-23T05:50:13;56.70;;;22.47;;
8825;SDS011;4449;50.872;4.714;2023-01-23T05:52:41;56.00;;;22.83;;
8825;SDS011;4449;50.872;4.714;2023-01-23T05:55:08;59.43;;;23.67;;
8825;SDS011;4449;50.872;4.714;2023-01-23T05:57:36;59.33;;;23.37;;
8825;SDS011;4449;50.872;4.714;2023-01-23T06:00:05;60.90;;;23.07;;
8825;SDS011;4449;50.872;4.714;2023-01-23T06:02:33;51.67;;;22.27;;
8825;SDS011;4449;50.872;4.714;2023-01-23T06:05:02;59.37;;;23.13;;
8825;SDS011;4449;50.872;4.714;2023-01-23T06:07:30;55.07;;;23.90;;
8825;SDS011;4449;50.872;4.714;2023-01-23T06:09:58;55.60;;;22.63;;
8825;SDS011;4449;50.872;4.714;2023-01-23T06:12:25;52.70;;;23.13;;
8825;SDS011;4449;50.872;4.714;2023-01-23T06:14:53;56.00;;;22.93;;
8825;SDS011;4449;50.872;4.714;2023-01-23T06:17:21;58.67;;;22.00;;
8825;SDS011;4449;50.872;4.714;2023-01-23T06:19:49;56.13;;;21.10;;
8825;SDS011;4449;50.872;4.714;2023-01-23T06:22:18;59.00;;;22.90;;
8825;SDS011;4449;50.872;4.714;2023-01-23T06:24:46;57.30;;;24.23;;
8825;SDS011;4449;50.872;4.714;2023-01-23T06:27:13;53.73;;;22.40;;
8825;SDS011;4449;50.872;4.714;2023-01-23T06:29:41;55.40;;;23.27;;
8825;SDS011;4449;50.872;4.714;2023-01-23T06:32:09;58.13;;;23.47;;
8825;SDS011;4449;50.872;4.714;2023-01-23T06:34:37;51.03;;;22.90;;
8825;SDS011;4449;50.872;4.714;2023-01-23T06:37:05;52.97;;;23.70;;
8825;SDS011;4449;50.872;4.714;2023-01-23T06:39:34;60.10;;;23.13;;
8825;SDS011;4449;50.872;4.714;2023-01-23T06:42:02;59.97;;;22.47;;
8825;SDS011;4449;50.872;4.714;2023-01-23T06:44:34;59.83;;;22.90;;
8825;SDS011;4449;50.872;4.714;2023-01-23T06:47:02;52.47;;;22.23;;
8825;SDS011;4449;50.872;4.714;2023-01-23T06:49:30;58.07;;;23.07;;
8825;SDS011;4449;50.872;4.714;2023-01-23T06:51:57;49.33;;;22.20;;
8825;SDS011;4449;50.872;4.714;2023-01-23T06:54:25;50.70;;;21.77;;
8825;SDS011;4449;50.872;4.714;2023-01-23T06:56:54;46.97;;;20.77;;
8825;SDS011;4449;50.872;4.714;2023-01-23T06:59:22;55.33;;;21.93;;
8825;SDS011;4449;50.872;4.714;2023-01-23T07:01:50;52.73;;;22.23;;
8825;SDS011;4449;50.872;4.714;2023-01-23T07:04:17;49.77;;;22.43;;
8825;SDS011;4449;50.872;4.714;2023-01-23T07:06:45;50.07;;;22.90;;
8825;SDS011;4449;50.872;4.714;2023-01-23T07:09:13;46.80;;;22.03;;
8825;SDS011;4449;50.872;4.714;2023-01-23T07:11:41;51.87;;;23.07;;
8825;SDS011;4449;50.872;4.714;2023-01-23T07:14:10;52.43;;;21.27;;
8825;SDS011;4449;50.872;4.714;2023-01-23T07:16:38;45.90;;;20.17;;
8825;SDS011;4449;50.872;4.714;2023-01-23T07:19:06;52.73;;;22.47;;
8825;SDS011;4449;50.872;4.714;2023-01-23T07:21:33;57.10;;;22.73;;
8825;SDS011;4449;50.872;4.714;2023-01-23T07:24:01;47.03;;;21.03;;
8825;SDS011;4449;50.872;4.714;2023-01-23T07:26:29;52.60;;;24.17;;
8825;SDS011;4449;50.872;4.714;2023-01-23T07:28:57;46.50;;;22.10;;
8825;SDS011;4449;50.872;4.714;2023-01-23T07:31:26;45.47;;;22.93;;
8825;SDS011;4449;50.872;4.714;2023-01-23T07:33:56;56.43;;;23.53;;
8825;SDS011;4449;50.872;4.714;2023-01-23T07:36:23;54.47;;;23.17;;
8825;SDS011;4449;50.872;4.714;2023-01-23T07:38:51;51.80;;;22.23;;
8825;SDS011;4449;50.872;4.714;2023-01-23T07:41:19;47.10;;;22.17;;
8825;SDS011;4449;50.872;4.714;2023-01-23T07:43:47;48.27;;;22.17;;
8825;SDS011;4449;50.872;4.714;2023-01-23T07:46:15;54.90;;;23.60;;
8825;SDS011;4449;50.872;4.714;2023-01-23T07:48:44;52.63;;;21.87;;
8825;SDS011;4449;50.872;4.714;2023-01-23T07:51:12;55.30;;;23.00;;
8825;SDS011;4449;50.872;4.714;2023-01-23T07:53:39;55.97;;;23.80;;
8825;SDS011;4449;50.872;4.714;2023-01-23T07:56:07;55.87;;;25.33;;
8825;SDS011;4449;50.872;4.714;2023-01-23T07:58:35;52.37;;;22.07;;
8825;SDS011;4449;50.872;4.714;2023-01-23T08:01:06;52.77;;;24.50;;
8825;SDS011;4449;50.872;4.714;2023-01-23T08:03:34;50.77;;;22.10;;
8825;SDS011;4449;50.872;4.714;2023-01-23T08:06:04;60.30;;;24.03;;
8825;SDS011;4449;50.872;4.714;2023-01-23T08:08:31;51.83;;;21.90;;
8825;SDS011;4449;50.872;4.714;2023-01-23T08:11:02;53.77;;;22.03;;
8825;SDS011;4449;50.872;4.714;2023-01-23T08:13:30;45.80;;;22.40;;
8825;SDS011;4449;50.872;4.714;2023-01-23T08:15:57;52.10;;;24.03;;
8825;SDS011;4449;50.872;4.714;2023-01-23T08:18:25;52.60;;;22.97;;
8825;SDS011;4449;50.872;4.714;2023-01-23T08:20:53;47.90;;;22.20;;
8825;SDS011;4449;50.872;4.714;2023-01-23T08:23:24;52.60;;;23.57;;
8825;SDS011;4449;50.872;4.714;2023-01-23T08:25:56;43.00;;;21.70;;
8825;SDS011;4449;50.872;4.714;2023-01-23T08:28:25;46.20;;;22.63;;
8825;SDS011;4449;50.872;4.714;2023-01-23T08:30:53;45.20;;;21.47;;
8825;SDS011;4449;50.872;4.714;2023-01-23T08:33:21;48.00;;;23.00;;
8825;SDS011;4449;50.872;4.714;2023-01-23T08:35:49;68.73;;;31.83;;
8825;SDS011;4449;50.872;4.714;2023-01-23T08:38:16;49.73;;;21.83;;
8825;SDS011;4449;50.872;4.714;2023-01-23T08:40:46;44.80;;;22.47;;
8825;SDS011;4449;50.872;4.714;2023-01-23T08:43:14;45.40;;;21.03;;
8825;SDS011;4449;50.872;4.714;2023-01-23T08:45:46;42.50;;;21.10;;
8825;SDS011;4449;50.872;4.714;2023-01-23T08:48:14;44.83;;;21.10;;
8825;SDS011;4449;50.872;4.714;2023-01-23T08:50:41;46.03;;;23.27;;
8825;SDS011;4449;50.872;4.714;2023-01-23T08:53:09;42.07;;;22.50;;
8825;SDS011;4449;50.872;4.714;2023-01-23T08:55:37;45.33;;;20.83;;
8825;SDS011;4449;50.872;4.714;2023-01-23T08:58:07;42.40;;;21.57;;
8825;SDS011;4449;50.872;4.714;2023-01-23T09:00:37;45.37;;;22.53;;
8825;SDS011;4449;50.872;4.714;2023-01-23T09:03:05;58.73;;;23.27;;
8825;SDS011;4449;50.872;4.714;2023-01-23T09:05:33;54.37;;;22.43;;
8825;SDS011;4449;50.872;4.714;2023-01-23T09:08:02;43.17;;;22.43;;
8825;SDS011;4449;50.872;4.714;2023-01-23T09:10:29;48.70;;;22.77;;
8825;SDS011;4449;50.872;4.714;2023-01-23T09:12:57;50.73;;;23.37;;
8825;SDS011;4449;50.872;4.714;2023-01-23T09:15:26;47.53;;;21.50;;
8825;SDS011;4449;50.872;4.714;2023-01-23T09:17:54;48.07;;;22.67;;
8825;SDS011;4449;50.872;4.714;2023-01-23T09:20:22;45.03;;;21.70;;
8825;SDS011;4449;50.872;4.714;2023-01-23T09:22:53;45.60;;;22.17;;
8825;SDS011;4449;50.872;4.714;2023-01-23T09:25:21;49.50;;;22.20;;
8825;SDS011;4449;50.872;4.714;2023-01-23T09:27:49;43.73;;;23.27;;
8825;SDS011;4449;50.872;4.714;2023-01-23T09:30:17;46.53;;;22.90;;
8825;SDS011;4449;50.872;4.714;2023-01-23T09:32:46;43.63;;;21.93;;
8825;SDS011;4449;50.872;4.714;2023-01-23T09:35:14;45.50;;;22.20;;
8825;SDS011;4449;50.872;4.714;2023-01-23T09:37:42;46.10;;;22.13;;
8825;SDS011;4449;50.872;4.714;2023-01-23T09:40:26;46.07;;;23.03;;
8825;SDS011;4449;50.872;4.714;2023-01-23T10:42:09;36.73;;;21.27;;
8825;SDS011;4449;50.872;4.714;2023-01-23T10:44:38;43.77;;;22.57;;
8825;SDS011;4449;50.872;4.714;2023-01-23T10:47:11;41.10;;;22.27;;
8825;SDS011;4449;50.872;4.714;2023-01-23T10:49:42;49.20;;;21.53;;
8825;SDS011;4449;50.872;4.714;2023-01-23T10:52:27;41.53;;;22.03;;
8825;SDS011;4449;50.872;4.714;2023-01-23T10:54:55;41.97;;;21.53;;
8825;SDS011;4449;50.872;4.714;2023-01-23T10:57:24;41.13;;;22.30;;
8825;SDS011;4449;50.872;4.714;2023-01-23T10:59:53;45.23;;;21.20;;
8825;SDS011;4449;50.872;4.714;2023-01-23T11:02:25;45.17;;;21.70;;
8825;SDS011;4449;50.872;4.714;2023-01-23T11:04:53;42.17;;;22.43;;
8825;SDS011;4449;50.872;4.714;2023-01-23T11:07:22;41.30;;;22.00;;
8825;SDS011;4449;50.872;4.714;2023-01-23T11:09:52;41.03;;;21.30;;
8825;SDS011;4449;50.872;4.714;2023-01-23T11:12:21;44.10;;;22.43;;
8825;SDS011;4449;50.872;4.714;2023-01-23T11:14:51;49.10;;;23.23;;
8825;SDS011;4449;50.872;4.714;2023-01-23T11:17:20;40.93;;;23.10;;
8825;SDS011;4449;50.872;4.714;2023-01-23T11:19:49;43.00;;;22.60;;
8825;SDS011;4449;50.872;4.714;2023-01-23T11:22:32;44.50;;;23.07;;
8825;SDS011;4449;50.872;4.714;2023-01-23T11:25:02;45.57;;;22.00;;
8825;SDS011;4449;50.872;4.714;2023-01-23T11:27:40;38.43;;;21.33;;
8825;SDS011;4449;50.872;4.714;2023-01-23T11:30:37;46.03;;;22.13;;
8825;SDS011;4449;50.872;4.714;2023-01-23T11:33:12;46.10;;;22.33;;
8825;SDS011;4449;50.872;4.714;2023-01-23T11:35:48;41.27;;;21.37;;
8825;SDS011;4449;50.872;4.714;2023-01-23T11:38:18;43.23;;;21.80;;
8825;SDS011;4449;50.872;4.714;2023-01-23T11:40:47;39.20;;;20.50;;
8825;SDS011;4449;50.872;4.714;2023-01-23T11:43:14;38.93;;;20.53;;
8825;SDS011;4449;50.872;4.714;2023-01-23T11:45:46;38.97;;;21.67;;
8825;SDS011;4449;50.872;4.714;2023-01-23T11:48:20;39.73;;;21.20;;
8825;SDS011;4449;50.872;4.714;2023-01-23T11:50:52;37.37;;;20.73;;
8825;SDS011;4449;50.872;4.714;2023-01-23T11:53:24;40.17;;;22.80;;
8825;SDS011;4449;50.872;4.714;2023-01-23T11:58:50;43.30;;;21.93;;
8825;SDS011;4449;50.872;4.714;2023-01-23T12:01:24;41.33;;;21.00;;
8825;SDS011;4449;50.872;4.714;2023-01-23T12:06:40;41.97;;;21.00;;
8825;SDS011;4449;50.872;4.714;2023-01-23T12:09:10;41.77;;;22.40;;
8825;SDS011;4449;50.872;4.714;2023-01-23T12:11:44;43.70;;;22.77;;
8825;SDS011;4449;50.872;4.714;2023-01-23T12:14:15;43.53;;;21.83;;
8825;SDS011;4449;50.872;4.714;2023-01-23T12:16:49;38.27;;;20.97;;
8825;SDS011;4449;50.872;4.714;2023-01-23T12:19:23;39.87;;;21.93;;
8825;SDS011;4449;50.872;4.714;2023-01-23T12:21:58;41.40;;;22.13;;
8825;SDS011;4449;50.872;4.714;2023-01-23T12:24:34;47.40;;;21.47;;
8825;SDS011;4449;50.872;4.714;2023-01-23T12:27:09;39.90;;;21.60;;
8825;SDS011;4449;50.872;4.714;2023-01-23T12:29:49;39.33;;;20.23;;
8825;SDS011;4449;50.872;4.714;2023-01-23T12:32:32;41.20;;;21.80;;
8825;SDS011;4449;50.872;4.714;2023-01-23T12:35:06;37.53;;;21.70;;
8825;SDS011;4449;50.872;4.714;2023-01-23T12:37:42;37.77;;;21.07;;
8825;SDS011;4449;50.872;4.714;2023-01-23T12:40:14;41.67;;;21.33;;
8825;SDS011;4449;50.872;4.714;2023-01-23T12:42:47;42.63;;;22.53;;
8825;SDS011;4449;50.872;4.714;2023-01-23T12:45:19;42.57;;;21.07;;
8825;SDS011;4449;50.872;4.714;2023-01-23T12:47:51;40.73;;;20.33;;
8825;SDS011;4449;50.872;4.714;2023-01-23T12:50:21;40.60;;;21.13;;
8825;SDS011;4449;50.872;4.714;2023-01-23T12:52:50;40.37;;;22.17;;
8825;SDS011;4449;50.872;4.714;2023-01-23T12:55:20;39.67;;;21.90;;
8825;SDS011;4449;50.872;4.714;2023-01-23T12:57:50;37.67;;;20.53;;
8825;SDS011;4449;50.872;4.714;2023-01-23T13:00:23;37.07;;;19.70;;
8825;SDS011;4449;50.872;4.714;2023-01-23T13:02:56;41.00;;;22.97;;
8825;SDS011;4449;50.872;4.714;2023-01-23T13:05:29;36.80;;;20.40;;
8825;SDS011;4449;50.872;4.714;2023-01-23T13:07:59;41.73;;;21.63;;
8825;SDS011;4449;50.872;4.714;2023-01-23T13:10:30;34.67;;;19.97;;
8825;SDS011;4449;50.872;4.714;2023-01-23T13:13:18;38.23;;;20.37;;
8825;SDS011;4449;50.872;4.714;2023-01-23T13:15:59;42.73;;;21.13;;
8825;SDS011;4449;50.872;4.714;2023-01-23T13:18:29;36.60;;;20.20;;
8825;SDS011;4449;50.872;4.714;2023-01-23T13:21:17;43.57;;;21.57;;
8825;SDS011;4449;50.872;4.714;2023-01-23T13:29:57;42.60;;;22.97;;
8825;SDS011;4449;50.872;4.714;2023-01-23T13:32:27;41.40;;;20.47;;
8825;SDS011;4449;50.872;4.714;2023-01-23T13:34:56;39.87;;;19.70;;
8825;SDS011;4449;50.872;4.714;2023-01-23T13:40:12;36.90;;;20.23;;
8825;SDS011;4449;50.872;4.714;2023-01-23T13:42:40;39.00;;;20.90;;
8825;SDS011;4449;50.872;4.714;2023-01-23T13:45:20;36.47;;;20.17;;
8825;SDS011;4449;50.872;4.714;2023-01-23T13:47:55;37.63;;;20.63;;
8825;SDS011;4449;50.872;4.714;2023-01-23T13:50:45;39.73;;;20.80;;
8825;SDS011;4449;50.872;4.714;2023-01-23T13:53:16;34.20;;;19.37;;
8825;SDS011;4449;50.872;4.714;2023-01-23T13:56:02;36.63;;;20.73;;
8825;SDS011;4449;50.872;4.714;2023-01-23T13:58:48;38.97;;;20.07;;
8825;SDS011;4449;50.872;4.714;2023-01-23T14:01:17;34.00;;;19.40;;
8825;SDS011;4449;50.872;4.714;2023-01-23T14:04:05;35.27;;;20.57;;
8825;SDS011;4449;50.872;4.714;2023-01-23T14:07:00;40.20;;;20.27;;
8825;SDS011;4449;50.872;4.714;2023-01-23T14:09:28;39.20;;;20.10;;
8825;SDS011;4449;50.872;4.714;2023-01-23T14:11:57;40.60;;;20.07;;
8825;SDS011;4449;50.872;4.714;2023-01-23T14:14:27;36.40;;;18.90;;
8825;SDS011;4449;50.872;4.714;2023-01-23T14:17:13;37.73;;;19.30;;
8825;SDS011;4449;50.872;4.714;2023-01-23T14:19:47;40.53;;;20.63;;
8825;SDS011;4449;50.872;4.714;2023-01-23T14:22:17;34.97;;;20.17;;
8825;SDS011;4449;50.872;4.714;2023-01-23T14:24:45;36.00;;;19.77;;
8825;SDS011;4449;50.872;4.714;2023-01-23T14:27:18;37.40;;;20.23;;
8825;SDS011;4449;50.872;4.714;2023-01-23T14:29:56;36.57;;;19.93;;
8825;SDS011;4449;50.872;4.714;2023-01-23T14:32:24;39.40;;;20.13;;
8825;SDS011;4449;50.872;4.714;2023-01-23T14:34:52;33.20;;;18.67;;
8825;SDS011;4449;50.872;4.714;2023-01-23T14:37:21;32.87;;;19.17;;
8825;SDS011;4449;50.872;4.714;2023-01-23T14:39:49;37.97;;;20.40;;
8825;SDS011;4449;50.872;4.714;2023-01-23T14:42:20;36.57;;;21.30;;
8825;SDS011;4449;50.872;4.714;2023-01-23T14:44:49;39.90;;;19.87;;
8825;SDS011;4449;50.872;4.714;2023-01-23T14:47:24;33.50;;;18.47;;
8825;SDS011;4449;50.872;4.714;2023-01-23T14:49:53;32.43;;;18.63;;
8825;SDS011;4449;50.872;4.714;2023-01-23T14:52:24;33.23;;;18.50;;
8825;SDS011;4449;50.872;4.714;2023-01-23T14:54:53;33.67;;;17.63;;
8825;SDS011;4449;50.872;4.714;2023-01-23T14:57:21;28.57;;;17.00;;
8825;SDS011;4449;50.872;4.714;2023-01-23T14:59:49;29.03;;;16.37;;
8825;SDS011;4449;50.872;4.714;2023-01-23T15:02:25;30.20;;;18.10;;
8825;SDS011;4449;50.872;4.714;2023-01-23T15:05:08;29.43;;;16.80;;
8825;SDS011;4449;50.872;4.714;2023-01-23T15:07:42;28.83;;;17.00;;
8825;SDS011;4449;50.872;4.714;2023-01-23T15:10:17;27.17;;;15.93;;
8825;SDS011;4449;50.872;4.714;2023-01-23T15:12:47;32.73;;;18.50;;
8825;SDS011;4449;50.872;4.714;2023-01-23T15:15:16;25.97;;;16.07;;
8825;SDS011;4449;50.872;4.714;2023-01-23T15:17:44;25.97;;;15.23;;
8825;SDS011;4449;50.872;4.714;2023-01-23T15:20:29;23.60;;;13.97;;
8825;SDS011;4449;50.872;4.714;2023-01-23T15:23:00;23.43;;;13.97;;
8825;SDS011;4449;50.872;4.714;2023-01-23T15:25:39;22.57;;;13.57;;
8825;SDS011;4449;50.872;4.714;2023-01-23T15:30:50;22.33;;;14.87;;
8825;SDS011;4449;50.872;4.714;2023-01-23T15:33:23;23.50;;;13.37;;
8825;SDS011;4449;50.872;4.714;2023-01-23T15:35:51;27.87;;;15.53;;
8825;SDS011;4449;50.872;4.714;2023-01-23T15:38:20;25.40;;;15.57;;
8825;SDS011;4449;50.872;4.714;2023-01-23T15:40:49;28.93;;;16.83;;
8825;SDS011;4449;50.872;4.714;2023-01-23T15:43:17;24.97;;;15.07;;
8825;SDS011;4449;50.872;4.714;2023-01-23T15:45:45;31.80;;;16.60;;
8825;SDS011;4449;50.872;4.714;2023-01-23T15:48:13;28.60;;;17.13;;
8825;SDS011;4449;50.872;4.714;2023-01-23T15:50:41;23.57;;;16.07;;
8825;SDS011;4449;50.872;4.714;2023-01-23T15:53:09;24.80;;;15.97;;
8825;SDS011;4449;50.872;4.714;2023-01-23T15:55:39;27.50;;;15.87;;
8825;SDS011;4449;50.872;4.714;2023-01-23T15:58:08;26.80;;;15.97;;
8825;SDS011;4449;50.872;4.714;2023-01-23T16:00:37;25.77;;;15.23;;
8825;SDS011;4449;50.872;4.714;2023-01-23T16:03:05;17.40;;;11.00;;
8825;SDS011;4449;50.872;4.714;2023-01-23T16:05:33;28.80;;;16.43;;
8825;SDS011;4449;50.872;4.714;2023-01-23T16:08:01;27.77;;;16.00;;
8825;SDS011;4449;50.872;4.714;2023-01-23T16:10:30;27.80;;;17.00;;
8825;SDS011;4449;50.872;4.714;2023-01-23T16:13:01;26.87;;;16.67;;
8825;SDS011;4449;50.872;4.714;2023-01-23T16:15:30;25.30;;;15.77;;
8825;SDS011;4449;50.872;4.714;2023-01-23T16:17:59;24.97;;;15.57;;
8825;SDS011;4449;50.872;4.714;2023-01-23T16:20:27;27.77;;;15.53;;